createdAt,value
2022-09-28T00:01:56.868Z,98101.59
2022-09-28T00:04:25.294Z,98098.53
2022-09-28T00:06:53.840Z,98098.47
2022-09-28T00:09:22.072Z,98098.00
2022-09-28T00:11:52.492Z,98096.41
2022-09-28T00:14:21.785Z,98092.72
2022-09-28T00:16:50.341Z,98091.66
2022-09-28T00:19:18.846Z,98091.16
2022-09-28T00:21:48.021Z,98092.22
2022-09-28T00:24:17.125Z,98093.88
2022-09-28T00:26:48.887Z,98096.16
2022-09-28T00:29:23.278Z,98090.06
2022-09-28T00:31:54.136Z,98090.22
2022-09-28T00:34:22.356Z,98085.50
2022-09-28T00:36:50.661Z,98086.66
2022-09-28T00:39:19.579Z,98092.13
2022-09-28T00:41:48.508Z,98087.97
2022-09-28T00:44:40.449Z,98080.75
2022-09-28T00:47:32.665Z,98081.44
2022-09-28T00:50:06.463Z,98078.16
2022-09-28T00:52:41.066Z,98077.69
2022-09-28T00:55:15.097Z,98083.97
2022-09-28T00:57:48.618Z,98093.63
2022-09-28T01:00:19.296Z,98091.22
2022-09-28T01:02:48.767Z,98081.81
2022-09-28T01:05:19.325Z,98079.00
2022-09-28T01:07:48.766Z,98089.59
2022-09-28T01:10:17.429Z,98094.13
2022-09-28T01:12:45.871Z,98095.31
2022-09-28T01:15:15.573Z,98080.88
2022-09-28T01:18:04.242Z,98083.00
2022-09-28T01:20:58.296Z,98087.31
2022-09-28T01:24:10.903Z,98097.28
2022-09-28T01:27:08.096Z,98095.88
2022-09-28T01:29:48.287Z,98093.75
2022-09-28T01:32:30.904Z,98087.44
2022-09-28T01:35:04.075Z,98084.44
2022-09-28T01:37:43.241Z,98088.31
2022-09-28T01:40:15.813Z,98083.75
2022-09-28T01:42:49.951Z,98079.63
2022-09-28T01:45:24.928Z,98074.59
2022-09-28T01:47:58.197Z,98074.25
2022-09-28T01:50:31.087Z,98070.03
2022-09-28T01:53:10.928Z,98067.41
2022-09-28T01:55:47.363Z,98065.53
2022-09-28T01:58:26.442Z,98076.72
2022-09-28T02:01:04.643Z,98079.09
2022-09-28T02:03:40.707Z,98074.66
2022-09-28T02:06:16.920Z,98073.81
2022-09-28T02:08:52.091Z,98072.13
2022-09-28T02:11:23.388Z,98074.59
2022-09-28T02:13:59.957Z,98071.69
2022-09-28T02:16:36.926Z,98069.16
2022-09-28T02:19:06.922Z,98079.22
2022-09-28T02:21:44.890Z,98075.28
2022-09-28T02:24:21.676Z,98073.22
2022-09-28T02:26:53.330Z,98083.25
2022-09-28T02:29:24.234Z,98083.94
2022-09-28T02:31:53.216Z,98083.94
2022-09-28T02:34:21.649Z,98081.81
2022-09-28T02:36:50.736Z,98084.69
2022-09-28T02:39:19.645Z,98079.50
2022-09-28T02:42:03.296Z,98081.75
2022-09-28T02:44:51.054Z,98082.19
2022-09-28T02:47:37.185Z,98075.84
2022-09-28T02:50:21.770Z,98082.94
2022-09-28T02:53:21.370Z,98079.78
2022-09-28T02:56:09.210Z,98072.63
2022-09-28T02:58:50.790Z,98083.63
2022-09-28T03:01:30.349Z,98082.41
2022-09-28T03:04:10.063Z,98094.22
2022-09-28T03:06:47.405Z,98093.16
2022-09-28T03:09:20.734Z,98086.00
2022-09-28T03:11:55.383Z,98089.69
2022-09-28T03:14:24.088Z,98085.28
2022-09-28T03:16:57.823Z,98082.59
2022-09-28T03:19:30.881Z,98091.66
2022-09-28T03:22:01.691Z,98092.00
2022-09-28T03:24:30.346Z,98092.44
2022-09-28T03:26:58.628Z,98083.63
2022-09-28T03:29:27.126Z,98092.25
2022-09-28T03:32:03.172Z,98095.66
2022-09-28T03:34:31.447Z,98097.63
2022-09-28T03:36:59.805Z,98093.41
2022-09-28T03:39:28.205Z,98092.84
2022-09-28T03:41:57.152Z,98092.44
2022-09-28T03:44:25.423Z,98091.78
2022-09-28T03:46:53.854Z,98089.88
2022-09-28T03:49:23.834Z,98093.91
2022-09-28T03:51:52.336Z,98093.88
2022-09-28T03:54:20.517Z,98087.13
2022-09-28T03:56:48.830Z,98093.75
2022-09-28T03:59:18.486Z,98091.41
2022-09-28T04:01:46.926Z,98089.25
2022-09-28T04:04:16.086Z,98093.47
2022-09-28T04:06:46.361Z,98089.06
2022-09-28T04:09:14.772Z,98094.09
2022-09-28T04:12:02.826Z,98093.06
2022-09-28T04:14:33.229Z,98090.00
2022-09-28T04:17:01.694Z,98091.22
2022-09-28T04:19:32.233Z,98083.44
2022-09-28T04:22:21.127Z,98099.13
2022-09-28T04:24:49.505Z,98096.09
2022-09-28T04:27:35.218Z,98098.78
2022-09-28T04:30:04.884Z,98094.22
2022-09-28T04:32:35.231Z,98100.22
2022-09-28T04:35:03.685Z,98106.25
2022-09-28T04:37:34.369Z,98098.66
2022-09-28T04:40:04.152Z,98108.22
2022-09-28T04:42:33.319Z,98101.28
2022-09-28T04:45:02.161Z,98101.03
2022-09-28T04:47:31.482Z,98100.59
2022-09-28T04:50:16.874Z,98103.94
2022-09-28T04:53:05.988Z,98106.59
2022-09-28T04:55:34.327Z,98100.19
2022-09-28T04:58:04.719Z,98096.78
2022-09-28T05:00:35.909Z,98101.50
2022-09-28T05:03:25.386Z,98106.19
2022-09-28T05:06:10.279Z,98108.91
2022-09-28T05:08:46.720Z,98108.09
2022-09-28T05:11:16.571Z,98111.31
2022-09-28T05:13:46.554Z,98111.78
2022-09-28T05:16:18.328Z,98115.53
2022-09-28T05:19:07.280Z,98106.47
2022-09-28T05:21:35.504Z,98124.16
2022-09-28T05:24:07.554Z,98116.97
2022-09-28T05:26:38.482Z,98108.03
2022-09-28T05:29:08.877Z,98115.00
2022-09-28T05:31:52.491Z,98113.22
2022-09-28T05:34:23.621Z,98110.97
2022-09-28T05:36:51.905Z,98111.44
2022-09-28T05:39:21.832Z,98113.00
2022-09-28T05:41:50.320Z,98114.97
2022-09-28T05:44:18.739Z,98114.44
2022-09-28T05:46:48.713Z,98114.38
2022-09-28T05:49:20.427Z,98110.22
2022-09-28T05:51:49.324Z,98107.97
2022-09-28T05:54:17.829Z,98113.06
2022-09-28T05:56:49.644Z,98122.41
2022-09-28T05:59:18.300Z,98121.28
2022-09-28T06:01:46.553Z,98112.91
2022-09-28T06:04:16.416Z,98115.97
2022-09-28T06:06:49.018Z,98111.31
2022-09-28T06:09:18.047Z,98121.03
2022-09-28T06:12:08.843Z,98116.72
2022-09-28T06:14:42.637Z,98121.66
2022-09-28T06:17:12.531Z,98121.41
2022-09-28T06:19:40.974Z,98128.59
2022-09-28T06:22:25.260Z,98127.13
2022-09-28T06:25:01.007Z,98127.78
2022-09-28T06:27:30.773Z,98133.81
2022-09-28T06:30:00.905Z,98129.13
2022-09-28T06:32:30.250Z,98131.22
2022-09-28T06:34:59.255Z,98124.59
2022-09-28T06:37:28.899Z,98141.88
2022-09-28T06:39:57.801Z,98143.16
2022-09-28T06:42:26.582Z,98143.63
2022-09-28T06:45:25.334Z,98132.75
2022-09-28T06:48:11.545Z,98137.38
2022-09-28T06:50:42.505Z,98146.94
2022-09-28T06:53:27.258Z,98139.41
2022-09-28T06:56:04.086Z,98151.50
2022-09-28T06:58:32.591Z,98149.81
2022-09-28T07:01:06.259Z,98154.31
2022-09-28T07:03:57.939Z,98156.16
2022-09-28T07:06:49.284Z,98154.56
2022-09-28T07:09:35.047Z,98159.75
2022-09-28T07:12:13.331Z,98171.13
2022-09-28T07:14:56.220Z,98161.53
2022-09-28T07:17:26.777Z,98169.44
2022-09-28T07:20:04.058Z,98164.97
2022-09-28T07:22:43.007Z,98161.34
2022-09-28T07:25:16.163Z,98158.75
2022-09-28T07:27:44.528Z,98160.28
2022-09-28T07:30:37.082Z,98155.44
2022-09-28T07:33:33.274Z,98165.94
2022-09-28T07:36:23.877Z,98165.41
2022-09-28T07:38:54.486Z,98169.34
2022-09-28T07:41:32.826Z,98180.94
2022-09-28T07:44:06.499Z,98180.84
2022-09-28T07:46:37.950Z,98180.84
2022-09-28T07:49:13.228Z,98179.16
2022-09-28T07:51:58.904Z,98178.44
2022-09-28T07:54:31.210Z,98190.28
2022-09-28T07:57:15.315Z,98185.63
2022-09-28T08:00:12.672Z,98179.88
2022-09-28T08:02:48.256Z,98185.88
2022-09-28T08:05:25.224Z,98192.25
2022-09-28T08:07:57.704Z,98194.94
2022-09-28T08:10:28.263Z,98192.25
2022-09-28T08:13:27.297Z,98188.47
2022-09-28T08:16:03.595Z,98202.72
2022-09-28T08:18:52.795Z,98196.06
2022-09-28T08:21:42.321Z,98200.38
2022-09-28T08:24:10.805Z,98197.63
2022-09-28T08:26:39.476Z,98190.09
2022-09-28T08:29:08.358Z,98192.28
2022-09-28T08:31:48.528Z,98199.97
2022-09-28T08:34:46.283Z,98198.53
2022-09-28T08:37:19.267Z,98191.03
2022-09-28T08:40:26.583Z,98182.22
2022-09-28T08:43:15.112Z,98196.75
2022-09-28T08:46:12.909Z,98187.66
2022-09-28T08:49:25.441Z,98198.25
2022-09-28T08:52:14.779Z,98199.34
2022-09-28T08:55:21.959Z,98194.91
2022-09-28T08:57:59.883Z,98198.72
2022-09-28T09:00:37.779Z,98199.97
2022-09-28T09:03:08.633Z,98205.75
2022-09-28T09:05:58.424Z,98207.22
2022-09-28T09:09:00.457Z,98213.50
2022-09-28T09:11:48.897Z,98212.13
2022-09-28T09:14:59.053Z,98210.59
2022-09-28T09:17:42.694Z,98218.09
2022-09-28T09:20:42.044Z,98220.28
2022-09-28T09:23:21.350Z,98207.91
2022-09-28T09:25:54.981Z,98213.59
2022-09-28T09:28:48.988Z,98220.53
2022-09-28T09:31:39.174Z,98225.84
2022-09-28T09:34:36.466Z,98225.47
2022-09-28T09:37:54.171Z,98227.50
2022-09-28T09:41:02.967Z,98218.03
2022-09-28T09:44:16.459Z,98225.38
2022-09-28T09:47:22.067Z,98226.50
2022-09-28T09:50:08.334Z,98222.75
2022-09-28T09:52:48.369Z,98224.03
2022-09-28T09:55:30.113Z,98224.13
2022-09-28T09:58:22.592Z,98212.72
2022-09-28T10:01:08.490Z,98224.41
2022-09-28T10:03:58.973Z,98220.75
2022-09-28T10:06:32.752Z,98222.03
2022-09-28T10:09:05.301Z,98217.78
2022-09-28T10:11:40.534Z,98215.69
2022-09-28T10:14:17.634Z,98216.47
2022-09-28T10:17:04.106Z,98213.19
2022-09-28T10:20:06.250Z,98215.88
2022-09-28T10:22:57.055Z,98206.28
2022-09-28T10:25:26.317Z,98209.84
2022-09-28T10:27:55.640Z,98202.44
2022-09-28T10:30:26.793Z,98202.84
2022-09-28T10:32:59.615Z,98199.63
2022-09-28T10:35:43.939Z,98198.81
2022-09-28T10:38:19.654Z,98196.41
2022-09-28T10:40:56.124Z,98198.00
2022-09-28T10:43:34.986Z,98200.03
2022-09-28T10:46:11.057Z,98194.19
2022-09-28T10:48:52.730Z,98200.22
2022-09-28T10:51:42.782Z,98189.75
2022-09-28T10:54:18.808Z,98200.38
2022-09-28T10:56:50.952Z,98197.00
2022-09-28T10:59:42.613Z,98197.81
2022-09-28T11:02:34.741Z,98197.81
2022-09-28T11:05:28.147Z,98209.69
2022-09-28T11:08:01.209Z,98201.44
2022-09-28T11:10:37.378Z,98210.28
2022-09-28T11:13:24.016Z,98208.88
2022-09-28T11:16:02.583Z,98208.75
2022-09-28T11:18:35.841Z,98207.97
2022-09-28T11:21:13.098Z,98199.19
2022-09-28T11:24:06.914Z,98201.75
2022-09-28T11:26:43.070Z,98208.03
2022-09-28T11:29:38.108Z,98211.28
2022-09-28T11:32:18.895Z,98211.31
2022-09-28T11:35:06.653Z,98212.50
2022-09-28T11:38:19.594Z,98209.16
2022-09-28T11:41:25.261Z,98203.94
2022-09-28T11:44:19.961Z,98206.56
2022-09-28T11:47:13.663Z,98213.88
2022-09-28T11:49:49.710Z,98212.50
2022-09-28T11:52:27.710Z,98215.28
2022-09-28T11:55:04.681Z,98215.31
2022-09-28T11:57:39.641Z,98205.06
2022-09-28T12:00:15.785Z,98210.47
2022-09-28T12:02:56.934Z,98216.13
2022-09-28T12:05:31.689Z,98211.31
2022-09-28T12:08:03.986Z,98218.16
2022-09-28T12:11:16.627Z,98221.78
2022-09-28T12:14:12.831Z,98223.00
2022-09-28T12:17:05.857Z,98223.16
2022-09-28T12:19:42.484Z,98236.47
2022-09-28T12:22:20.386Z,98233.47
2022-09-28T12:24:52.771Z,98229.84
2022-09-28T12:27:31.300Z,98227.41
2022-09-28T12:30:07.130Z,98228.63
2022-09-28T12:32:40.654Z,98228.63
2022-09-28T12:35:20.435Z,98231.25
2022-09-28T12:38:11.141Z,98227.81
2022-09-28T12:40:51.282Z,98226.19
2022-09-28T12:43:44.539Z,98224.38
2022-09-28T12:46:43.088Z,98217.75
2022-09-28T12:50:36.597Z,98222.16
2022-09-28T12:52:37.116Z,98220.72
2022-09-28T12:55:31.433Z,98220.53
2022-09-28T12:58:23.137Z,98225.78
2022-09-28T13:01:03.766Z,98210.09
2022-09-28T13:04:00.820Z,98212.31
2022-09-28T13:06:48.294Z,98209.91
2022-09-28T13:09:25.230Z,98214.72
2022-09-28T13:12:06.478Z,98207.69
2022-09-28T13:15:23.685Z,98209.69
2022-09-28T13:18:03.655Z,98208.28
2022-09-28T13:20:55.703Z,98209.09
2022-09-28T13:23:28.453Z,98213.72
2022-09-28T13:26:03.422Z,98208.06
2022-09-28T13:28:34.742Z,98206.06
2022-09-28T13:31:05.338Z,98218.53
2022-09-28T13:33:39.569Z,98215.72
2022-09-28T13:36:47.351Z,98204.00
2022-09-28T13:39:48.766Z,98211.03
2022-09-28T13:43:00.147Z,98214.22
2022-09-28T13:45:53.637Z,98202.00
2022-09-28T13:48:25.825Z,98207.78
2022-09-28T13:51:39.611Z,98206.59
2022-09-28T13:54:50.289Z,98204.78
2022-09-28T13:57:27.445Z,98204.78
2022-09-28T14:00:08.687Z,98198.88
2022-09-28T14:02:47.854Z,98196.66
2022-09-28T14:05:49.263Z,98195.47
2022-09-28T14:08:34.357Z,98198.00
2022-09-28T14:11:43.666Z,98206.44
2022-09-28T14:14:50.648Z,98210.84
2022-09-28T14:18:27.598Z,98206.34
2022-09-28T14:21:31.360Z,98203.88
2022-09-28T14:24:16.377Z,98205.56
2022-09-28T14:27:41.747Z,98205.63
2022-09-28T14:30:23.502Z,98206.03
2022-09-28T14:32:57.597Z,98209.25
2022-09-28T14:35:33.378Z,98210.44
2022-09-28T14:38:25.057Z,98204.31
2022-09-28T14:41:11.143Z,98208.22
2022-09-28T14:44:07.935Z,98209.81
2022-09-28T14:46:45.663Z,98225.59
2022-09-28T14:49:48.959Z,98238.09
2022-09-28T14:52:39.029Z,98241.50
2022-09-28T14:55:16.068Z,98245.81
2022-09-28T14:57:44.704Z,98259.81
2022-09-28T15:00:24.568Z,98263.22
2022-09-28T15:02:57.554Z,98262.19
2022-09-28T15:05:29.678Z,98271.97
2022-09-28T15:07:58.469Z,98270.22
2022-09-28T15:10:32.510Z,98284.50
2022-09-28T15:13:03.997Z,98302.63
2022-09-28T15:15:38.184Z,98303.19
2022-09-28T15:18:29.077Z,98307.72
2022-09-28T15:20:58.620Z,98312.78
2022-09-28T15:23:35.022Z,98310.19
2022-09-28T15:26:07.161Z,98309.81
2022-09-28T15:28:39.293Z,98310.19
2022-09-28T15:31:20.358Z,98308.84
2022-09-28T15:34:06.437Z,98318.59
2022-09-28T15:36:38.934Z,98309.78
2022-09-28T15:39:13.471Z,98307.94
2022-09-28T15:41:44.554Z,98310.69
2022-09-28T15:44:32.898Z,98303.66
2022-09-28T15:47:13.857Z,98309.03
2022-09-28T15:49:47.627Z,98303.13
2022-09-28T15:52:38.352Z,98319.75
2022-09-28T15:55:21.783Z,98314.31
2022-09-28T15:57:50.761Z,98324.38
2022-09-28T16:00:29.263Z,98324.09
2022-09-28T16:03:20.082Z,98315.44
2022-09-28T16:05:52.139Z,98321.13
2022-09-28T16:08:24.777Z,98323.00
2022-09-28T16:11:00.812Z,98319.94
2022-09-28T16:13:29.614Z,98316.75
2022-09-28T16:16:00.893Z,98311.09
2022-09-28T16:18:32.389Z,98317.22
2022-09-28T16:21:31.542Z,98317.50
2022-09-28T16:24:00.215Z,98330.22
2022-09-28T16:26:34.555Z,98323.97
2022-09-28T16:29:10.511Z,98328.16
2022-09-28T16:31:41.518Z,98330.44
2022-09-28T16:34:21.207Z,98316.81
2022-09-28T16:36:51.438Z,98316.47
2022-09-28T16:39:20.697Z,98319.84
2022-09-28T16:41:53.882Z,98328.28
2022-09-28T16:44:26.364Z,98326.28
2022-09-28T16:46:57.034Z,98335.78
2022-09-28T16:49:28.427Z,98335.31
2022-09-28T16:51:56.953Z,98328.88
2022-09-28T16:54:44.210Z,98331.66
2022-09-28T16:57:15.906Z,98335.78
2022-09-28T16:59:44.405Z,98338.34
2022-09-28T17:02:42.179Z,98334.72
2022-09-28T17:05:10.213Z,98346.91
2022-09-28T17:07:38.701Z,98343.59
2022-09-28T17:10:19.190Z,98338.97
2022-09-28T17:12:47.745Z,98340.06
2022-09-28T17:15:19.600Z,98336.78
2022-09-28T17:17:48.914Z,98343.38
2022-09-28T17:20:23.049Z,98332.66
2022-09-28T17:22:51.527Z,98338.69
2022-09-28T17:25:20.438Z,98343.97
2022-09-28T17:27:50.447Z,98337.06
2022-09-28T17:30:25.093Z,98338.75
2022-09-28T17:32:54.644Z,98338.97
2022-09-28T17:35:25.770Z,98336.97
2022-09-28T17:37:54.327Z,98331.31
2022-09-28T17:40:28.238Z,98351.19
2022-09-28T17:42:57.626Z,98342.44
2022-09-28T17:45:28.641Z,98349.84
2022-09-28T17:47:57.369Z,98346.91
2022-09-28T17:50:30.185Z,98350.03
2022-09-28T17:52:59.957Z,98348.41
2022-09-28T17:55:31.469Z,98349.84
2022-09-28T17:58:01.901Z,98355.06
2022-09-28T18:00:30.744Z,98355.00
2022-09-28T18:03:00.077Z,98356.63
2022-09-28T18:05:30.519Z,98361.31
2022-09-28T18:07:59.263Z,98363.94
2022-09-28T18:10:30.155Z,98370.53
2022-09-28T18:12:58.597Z,98377.09
2022-09-28T18:15:27.110Z,98363.06
2022-09-28T18:17:55.574Z,98384.66
2022-09-28T18:20:23.763Z,98384.75
2022-09-28T18:22:53.375Z,98385.00
2022-09-28T18:25:21.823Z,98385.28
2022-09-28T18:27:50.879Z,98383.91
2022-09-28T18:30:19.530Z,98374.84
2022-09-28T18:32:47.815Z,98384.03
2022-09-28T18:35:20.602Z,98383.22
2022-09-28T18:37:52.908Z,98390.88
2022-09-28T18:40:21.772Z,98400.22
2022-09-28T18:42:51.629Z,98394.38
2022-09-28T18:45:20.421Z,98404.44
2022-09-28T18:47:48.707Z,98395.63
2022-09-28T18:50:17.525Z,98399.41
2022-09-28T18:52:47.233Z,98409.41
2022-09-28T18:55:16.855Z,98407.97
2022-09-28T18:57:46.511Z,98413.34
2022-09-28T19:00:16.467Z,98415.22
2022-09-28T19:02:47.253Z,98416.88
2022-09-28T19:05:15.799Z,98427.00
2022-09-28T19:07:44.143Z,98434.00
2022-09-28T19:10:12.751Z,98430.59
2022-09-28T19:12:44.965Z,98432.47
2022-09-28T19:15:13.207Z,98438.84
2022-09-28T19:17:42.446Z,98448.13
2022-09-28T19:20:11.600Z,98452.69
2022-09-28T19:22:39.827Z,98455.09
2022-09-28T19:25:09.807Z,98458.88
2022-09-28T19:27:38.147Z,98452.97
2022-09-28T19:30:10.617Z,98458.50
2022-09-28T19:32:39.157Z,98449.94
2022-09-28T19:35:07.815Z,98456.16
2022-09-28T19:37:39.471Z,98444.19
2022-09-28T19:40:09.662Z,98441.03
2022-09-28T19:42:39.557Z,98442.69
2022-09-28T19:45:10.870Z,98437.38
2022-09-28T19:47:39.477Z,98438.09
2022-09-28T19:50:10.206Z,98442.56
2022-09-28T19:52:38.388Z,98443.91
2022-09-28T19:55:08.294Z,98447.81
2022-09-28T19:57:36.738Z,98448.78
2022-09-28T20:00:06.017Z,98450.84
2022-09-28T20:02:36.319Z,98447.97
2022-09-28T20:05:05.440Z,98453.38
2022-09-28T20:07:34.840Z,98445.81
2022-09-28T20:10:03.401Z,98457.53
2022-09-28T20:12:31.999Z,98466.56
2022-09-28T20:15:00.325Z,98458.94
2022-09-28T20:17:29.110Z,98463.28
2022-09-28T20:19:58.936Z,98459.84
2022-09-28T20:22:27.258Z,98454.97
2022-09-28T20:24:55.456Z,98448.56
2022-09-28T20:27:26.425Z,98445.97
2022-09-28T20:29:55.264Z,98445.81
2022-09-28T20:32:24.022Z,98444.66
2022-09-28T20:34:52.719Z,98445.63
2022-09-28T20:37:25.590Z,98452.66
2022-09-28T20:39:55.246Z,98459.66
2022-09-28T20:42:23.723Z,98461.09
2022-09-28T20:44:52.010Z,98462.00
2022-09-28T20:47:20.785Z,98455.47
2022-09-28T20:49:49.390Z,98453.00
2022-09-28T20:52:18.711Z,98452.19
2022-09-28T20:54:49.007Z,98449.41
2022-09-28T20:57:21.119Z,98450.50
2022-09-28T20:59:53.751Z,98450.13
2022-09-28T21:02:23.389Z,98451.94
2022-09-28T21:04:51.930Z,98457.06
2022-09-28T21:07:20.167Z,98450.41
2022-09-28T21:09:50.658Z,98463.16
2022-09-28T21:12:19.316Z,98451.75
2022-09-28T21:14:49.609Z,98459.84
2022-09-28T21:17:18.348Z,98455.78
2022-09-28T21:19:46.920Z,98467.75
2022-09-28T21:22:15.655Z,98461.91
2022-09-28T21:24:44.250Z,98467.38
2022-09-28T21:27:14.393Z,98464.13
2022-09-28T21:29:43.049Z,98471.31
2022-09-28T21:32:11.375Z,98466.91
2022-09-28T21:34:39.658Z,98471.28
2022-09-28T21:37:07.960Z,98478.31
2022-09-28T21:39:36.302Z,98466.16
2022-09-28T21:42:04.617Z,98477.91
2022-09-28T21:44:34.625Z,98469.13
2022-09-28T21:47:02.828Z,98474.50
2022-09-28T21:49:31.085Z,98470.53
2022-09-28T21:51:59.477Z,98479.84
2022-09-28T21:54:28.898Z,98481.03
2022-09-28T21:56:57.493Z,98478.50
2022-09-28T21:59:26.007Z,98470.06
2022-09-28T22:01:56.297Z,98475.69
2022-09-28T22:04:24.853Z,98476.63
2022-09-28T22:06:53.542Z,98473.09
2022-09-28T22:09:22.083Z,98478.16
2022-09-28T22:11:51.298Z,98476.56
2022-09-28T22:14:19.772Z,98462.13
2022-09-28T22:16:48.998Z,98474.19
2022-09-28T22:19:19.361Z,98470.47
2022-09-28T22:21:47.754Z,98472.78
2022-09-28T22:24:16.295Z,98481.22
2022-09-28T22:26:44.985Z,98479.47
2022-09-28T22:29:13.677Z,98477.84
2022-09-28T22:31:42.972Z,98472.38
2022-09-28T22:34:11.947Z,98472.09
2022-09-28T22:36:42.197Z,98484.63
2022-09-28T22:39:10.682Z,98482.69
2022-09-28T22:41:39.142Z,98482.88
2022-09-28T22:44:07.855Z,98485.44
2022-09-28T22:46:36.781Z,98494.41
2022-09-28T22:49:05.258Z,98482.59
2022-09-28T22:51:33.506Z,98485.19
2022-09-28T22:54:03.601Z,98485.84
2022-09-28T22:56:32.400Z,98481.63
2022-09-28T22:59:01.010Z,98482.75
2022-09-28T23:01:31.176Z,98487.81
2022-09-28T23:04:00.979Z,98485.53
2022-09-28T23:06:31.385Z,98480.66
2022-09-28T23:09:00.269Z,98481.28
2022-09-28T23:11:30.449Z,98478.06
2022-09-28T23:14:01.159Z,98470.13
2022-09-28T23:16:30.162Z,98473.66
2022-09-28T23:18:58.831Z,98470.41
2022-09-28T23:21:28.801Z,98473.66
2022-09-28T23:24:00.903Z,98473.84
2022-09-28T23:26:34.274Z,98476.63
2022-09-28T23:29:02.870Z,98466.75
2022-09-28T23:31:33.866Z,98472.25
2022-09-28T23:34:05.895Z,98471.59
2022-09-28T23:36:34.501Z,98473.38
2022-09-28T23:39:03.415Z,98467.56
2022-09-28T23:41:33.485Z,98471.75
2022-09-28T23:44:02.397Z,98473.22
2022-09-28T23:46:31.986Z,98469.16
2022-09-28T23:49:00.512Z,98470.31
2022-09-28T23:51:29.765Z,98465.75
2022-09-28T23:53:59.042Z,98462.03
2022-09-28T23:56:27.620Z,98457.97
2022-09-28T23:58:57.582Z,98468.34
